sensor_id;sensor_type;location;lat;lon;timestamp;P1;durP1;ratioP1;P2;durP2;ratioP2
75774;SDS011;64505;51.458;7.556;2022-10-31T00:00:23;16.27;;;5.50;;
75774;SDS011;64505;51.458;7.556;2022-10-31T00:02:27;16.33;;;6.03;;
75774;SDS011;64505;51.458;7.556;2022-10-31T00:04:30;14.93;;;5.05;;
75774;SDS011;64505;51.458;7.556;2022-10-31T00:06:33;19.83;;;5.80;;
75774;SDS011;64505;51.458;7.556;2022-10-31T00:08:35;15.02;;;5.10;;
75774;SDS011;64505;51.458;7.556;2022-10-31T00:10:38;9.07;;;4.63;;
75774;SDS011;64505;51.458;7.556;2022-10-31T00:12:41;13.25;;;4.90;;
75774;SDS011;64505;51.458;7.556;2022-10-31T00:14:44;11.68;;;5.20;;
75774;SDS011;64505;51.458;7.556;2022-10-31T00:16:46;13.68;;;5.95;;
75774;SDS011;64505;51.458;7.556;2022-10-31T00:18:51;14.80;;;6.00;;
75774;SDS011;64505;51.458;7.556;2022-10-31T00:20:58;13.88;;;5.57;;
75774;SDS011;64505;51.458;7.556;2022-10-31T00:23:02;10.80;;;5.00;;
75774;SDS011;64505;51.458;7.556;2022-10-31T00:25:05;12.50;;;5.80;;
75774;SDS011;64505;51.458;7.556;2022-10-31T00:27:08;13.23;;;5.53;;
75774;SDS011;64505;51.458;7.556;2022-10-31T00:29:11;11.48;;;5.18;;
75774;SDS011;64505;51.458;7.556;2022-10-31T00:31:14;15.50;;;6.03;;
75774;SDS011;64505;51.458;7.556;2022-10-31T00:33:16;13.93;;;5.53;;
75774;SDS011;64505;51.458;7.556;2022-10-31T00:35:20;9.73;;;5.82;;
75774;SDS011;64505;51.458;7.556;2022-10-31T00:37:23;12.48;;;4.88;;
75774;SDS011;64505;51.458;7.556;2022-10-31T00:39:26;15.63;;;5.88;;
75774;SDS011;64505;51.458;7.556;2022-10-31T00:41:28;12.43;;;5.90;;
75774;SDS011;64505;51.458;7.556;2022-10-31T00:43:31;13.45;;;5.70;;
75774;SDS011;64505;51.458;7.556;2022-10-31T00:45:34;11.73;;;5.45;;
75774;SDS011;64505;51.458;7.556;2022-10-31T00:47:37;12.60;;;5.32;;
75774;SDS011;64505;51.458;7.556;2022-10-31T00:49:40;9.23;;;5.20;;
75774;SDS011;64505;51.458;7.556;2022-10-31T00:51:43;12.40;;;5.05;;
75774;SDS011;64505;51.458;7.556;2022-10-31T00:53:46;10.38;;;5.60;;
75774;SDS011;64505;51.458;7.556;2022-10-31T00:55:49;13.32;;;5.22;;
75774;SDS011;64505;51.458;7.556;2022-10-31T00:57:52;10.70;;;5.55;;
75774;SDS011;64505;51.458;7.556;2022-10-31T00:59:54;12.90;;;5.50;;
75774;SDS011;64505;51.458;7.556;2022-10-31T01:01:57;14.40;;;5.50;;
75774;SDS011;64505;51.458;7.556;2022-10-31T01:04:00;11.95;;;5.63;;
75774;SDS011;64505;51.458;7.556;2022-10-31T01:06:03;14.07;;;6.20;;
75774;SDS011;64505;51.458;7.556;2022-10-31T01:08:09;12.75;;;5.05;;
75774;SDS011;64505;51.458;7.556;2022-10-31T01:10:12;13.32;;;5.75;;
75774;SDS011;64505;51.458;7.556;2022-10-31T01:12:14;10.82;;;5.28;;
75774;SDS011;64505;51.458;7.556;2022-10-31T01:14:17;12.35;;;6.50;;
75774;SDS011;64505;51.458;7.556;2022-10-31T01:16:22;16.38;;;5.97;;
75774;SDS011;64505;51.458;7.556;2022-10-31T01:18:26;12.85;;;6.13;;
75774;SDS011;64505;51.458;7.556;2022-10-31T01:20:29;17.23;;;6.10;;
75774;SDS011;64505;51.458;7.556;2022-10-31T01:22:32;15.27;;;5.43;;
75774;SDS011;64505;51.458;7.556;2022-10-31T01:24:36;13.93;;;6.07;;
75774;SDS011;64505;51.458;7.556;2022-10-31T01:26:39;9.85;;;5.63;;
75774;SDS011;64505;51.458;7.556;2022-10-31T01:28:43;13.95;;;5.68;;
75774;SDS011;64505;51.458;7.556;2022-10-31T01:30:47;11.88;;;5.35;;
75774;SDS011;64505;51.458;7.556;2022-10-31T01:32:50;11.88;;;6.07;;
75774;SDS011;64505;51.458;7.556;2022-10-31T01:34:52;10.45;;;5.15;;
75774;SDS011;64505;51.458;7.556;2022-10-31T01:36:55;12.13;;;5.47;;
75774;SDS011;64505;51.458;7.556;2022-10-31T01:38:58;13.63;;;5.88;;
75774;SDS011;64505;51.458;7.556;2022-10-31T01:41:04;14.55;;;5.40;;
75774;SDS011;64505;51.458;7.556;2022-10-31T01:43:09;12.50;;;5.82;;
75774;SDS011;64505;51.458;7.556;2022-10-31T01:45:13;13.15;;;4.97;;
75774;SDS011;64505;51.458;7.556;2022-10-31T01:47:19;12.75;;;5.90;;
75774;SDS011;64505;51.458;7.556;2022-10-31T01:49:29;17.00;;;5.35;;
75774;SDS011;64505;51.458;7.556;2022-10-31T01:51:38;16.65;;;5.50;;
75774;SDS011;64505;51.458;7.556;2022-10-31T01:53:46;15.77;;;6.53;;
75774;SDS011;64505;51.458;7.556;2022-10-31T01:55:49;10.25;;;5.43;;
75774;SDS011;64505;51.458;7.556;2022-10-31T01:57:53;12.35;;;5.45;;
75774;SDS011;64505;51.458;7.556;2022-10-31T02:00:01;13.68;;;5.70;;
75774;SDS011;64505;51.458;7.556;2022-10-31T02:02:06;12.23;;;5.38;;
75774;SDS011;64505;51.458;7.556;2022-10-31T02:04:09;13.25;;;5.82;;
75774;SDS011;64505;51.458;7.556;2022-10-31T02:06:14;13.02;;;5.68;;
75774;SDS011;64505;51.458;7.556;2022-10-31T02:08:25;16.48;;;6.50;;
75774;SDS011;64505;51.458;7.556;2022-10-31T02:10:29;12.57;;;5.60;;
75774;SDS011;64505;51.458;7.556;2022-10-31T02:12:33;15.95;;;6.38;;
75774;SDS011;64505;51.458;7.556;2022-10-31T02:14:39;11.85;;;5.82;;
75774;SDS011;64505;51.458;7.556;2022-10-31T02:16:42;11.20;;;5.93;;
75774;SDS011;64505;51.458;7.556;2022-10-31T02:18:45;13.45;;;5.38;;
75774;SDS011;64505;51.458;7.556;2022-10-31T02:20:51;12.02;;;5.70;;
75774;SDS011;64505;51.458;7.556;2022-10-31T02:23:06;10.55;;;5.57;;
75774;SDS011;64505;51.458;7.556;2022-10-31T02:25:34;12.25;;;5.53;;
75774;SDS011;64505;51.458;7.556;2022-10-31T02:27:58;13.90;;;5.70;;
75774;SDS011;64505;51.458;7.556;2022-10-31T02:30:15;16.73;;;5.18;;
75774;SDS011;64505;51.458;7.556;2022-10-31T02:32:24;12.75;;;5.63;;
75774;SDS011;64505;51.458;7.556;2022-10-31T02:34:31;13.48;;;5.47;;
75774;SDS011;64505;51.458;7.556;2022-10-31T02:36:41;13.30;;;5.78;;
75774;SDS011;64505;51.458;7.556;2022-10-31T02:38:50;14.18;;;6.22;;
75774;SDS011;64505;51.458;7.556;2022-10-31T02:41:00;14.05;;;6.70;;
75774;SDS011;64505;51.458;7.556;2022-10-31T02:43:11;13.85;;;6.32;;
75774;SDS011;64505;51.458;7.556;2022-10-31T02:45:23;12.65;;;6.32;;
75774;SDS011;64505;51.458;7.556;2022-10-31T02:47:33;15.93;;;6.38;;
75774;SDS011;64505;51.458;7.556;2022-10-31T02:49:40;12.35;;;6.13;;
75774;SDS011;64505;51.458;7.556;2022-10-31T02:51:47;12.38;;;6.13;;
75774;SDS011;64505;51.458;7.556;2022-10-31T02:53:51;14.02;;;6.63;;
75774;SDS011;64505;51.458;7.556;2022-10-31T02:55:58;12.43;;;5.88;;
75774;SDS011;64505;51.458;7.556;2022-10-31T02:58:04;16.70;;;7.22;;
75774;SDS011;64505;51.458;7.556;2022-10-31T03:00:11;13.65;;;6.90;;
75774;SDS011;64505;51.458;7.556;2022-10-31T03:02:26;13.13;;;5.70;;
75774;SDS011;64505;51.458;7.556;2022-10-31T03:04:54;13.88;;;6.07;;
75774;SDS011;64505;51.458;7.556;2022-10-31T03:07:11;17.10;;;6.15;;
75774;SDS011;64505;51.458;7.556;2022-10-31T03:09:22;11.85;;;7.00;;
75774;SDS011;64505;51.458;7.556;2022-10-31T03:11:29;12.75;;;6.40;;
75774;SDS011;64505;51.458;7.556;2022-10-31T03:13:39;16.08;;;7.63;;
75774;SDS011;64505;51.458;7.556;2022-10-31T03:15:48;14.32;;;5.90;;
75774;SDS011;64505;51.458;7.556;2022-10-31T03:17:54;15.70;;;6.05;;
75774;SDS011;64505;51.458;7.556;2022-10-31T03:20:04;12.38;;;6.00;;
75774;SDS011;64505;51.458;7.556;2022-10-31T03:22:12;21.23;;;6.15;;
75774;SDS011;64505;51.458;7.556;2022-10-31T03:24:18;12.48;;;6.57;;
75774;SDS011;64505;51.458;7.556;2022-10-31T03:26:23;12.63;;;6.05;;
75774;SDS011;64505;51.458;7.556;2022-10-31T03:28:28;14.73;;;5.78;;
75774;SDS011;64505;51.458;7.556;2022-10-31T03:30:35;11.48;;;5.85;;
75774;SDS011;64505;51.458;7.556;2022-10-31T03:32:41;13.63;;;6.53;;
75774;SDS011;64505;51.458;7.556;2022-10-31T03:34:47;13.88;;;6.47;;
75774;SDS011;64505;51.458;7.556;2022-10-31T03:36:54;15.77;;;6.70;;
75774;SDS011;64505;51.458;7.556;2022-10-31T03:38:59;13.38;;;5.90;;
75774;SDS011;64505;51.458;7.556;2022-10-31T03:41:07;14.48;;;5.93;;
75774;SDS011;64505;51.458;7.556;2022-10-31T03:43:13;14.93;;;6.68;;
75774;SDS011;64505;51.458;7.556;2022-10-31T03:45:20;14.48;;;6.47;;
75774;SDS011;64505;51.458;7.556;2022-10-31T03:47:26;17.90;;;6.68;;
75774;SDS011;64505;51.458;7.556;2022-10-31T03:49:29;14.00;;;6.70;;
75774;SDS011;64505;51.458;7.556;2022-10-31T03:51:34;13.30;;;6.57;;
75774;SDS011;64505;51.458;7.556;2022-10-31T03:53:44;17.10;;;6.60;;
75774;SDS011;64505;51.458;7.556;2022-10-31T03:55:54;21.15;;;6.50;;
75774;SDS011;64505;51.458;7.556;2022-10-31T03:58:02;14.02;;;6.60;;
75774;SDS011;64505;51.458;7.556;2022-10-31T04:00:09;13.27;;;6.47;;
75774;SDS011;64505;51.458;7.556;2022-10-31T04:02:15;15.05;;;6.68;;
75774;SDS011;64505;51.458;7.556;2022-10-31T04:04:21;15.73;;;6.55;;
75774;SDS011;64505;51.458;7.556;2022-10-31T04:06:24;13.90;;;6.55;;
75774;SDS011;64505;51.458;7.556;2022-10-31T04:08:28;15.43;;;6.28;;
75774;SDS011;64505;51.458;7.556;2022-10-31T04:10:35;14.90;;;7.07;;
75774;SDS011;64505;51.458;7.556;2022-10-31T04:12:40;14.57;;;5.55;;
75774;SDS011;64505;51.458;7.556;2022-10-31T04:14:45;15.70;;;7.10;;
75774;SDS011;64505;51.458;7.556;2022-10-31T04:16:51;14.43;;;7.57;;
75774;SDS011;64505;51.458;7.556;2022-10-31T04:18:54;14.15;;;5.72;;
75774;SDS011;64505;51.458;7.556;2022-10-31T04:21:00;16.00;;;7.40;;
75774;SDS011;64505;51.458;7.556;2022-10-31T04:23:04;13.20;;;6.80;;
75774;SDS011;64505;51.458;7.556;2022-10-31T04:25:16;18.17;;;7.32;;
75774;SDS011;64505;51.458;7.556;2022-10-31T04:27:19;13.48;;;6.40;;
75774;SDS011;64505;51.458;7.556;2022-10-31T04:29:22;15.45;;;6.95;;
75774;SDS011;64505;51.458;7.556;2022-10-31T04:31:25;20.02;;;8.15;;
75774;SDS011;64505;51.458;7.556;2022-10-31T04:33:27;13.65;;;6.95;;
75774;SDS011;64505;51.458;7.556;2022-10-31T04:35:30;15.15;;;6.53;;
75774;SDS011;64505;51.458;7.556;2022-10-31T04:37:33;15.77;;;6.93;;
75774;SDS011;64505;51.458;7.556;2022-10-31T04:39:35;16.80;;;6.63;;
75774;SDS011;64505;51.458;7.556;2022-10-31T04:41:38;16.25;;;7.65;;
75774;SDS011;64505;51.458;7.556;2022-10-31T04:43:42;15.43;;;6.97;;
75774;SDS011;64505;51.458;7.556;2022-10-31T04:45:45;16.13;;;7.03;;
75774;SDS011;64505;51.458;7.556;2022-10-31T04:47:47;17.50;;;6.97;;
75774;SDS011;64505;51.458;7.556;2022-10-31T04:49:50;16.50;;;7.10;;
75774;SDS011;64505;51.458;7.556;2022-10-31T04:51:52;13.30;;;6.78;;
75774;SDS011;64505;51.458;7.556;2022-10-31T04:53:55;15.65;;;7.05;;
75774;SDS011;64505;51.458;7.556;2022-10-31T04:55:58;14.82;;;7.60;;
75774;SDS011;64505;51.458;7.556;2022-10-31T04:58:01;17.58;;;7.78;;
75774;SDS011;64505;51.458;7.556;2022-10-31T05:00:07;15.88;;;7.93;;
75774;SDS011;64505;51.458;7.556;2022-10-31T05:02:10;15.05;;;8.23;;
75774;SDS011;64505;51.458;7.556;2022-10-31T05:04:13;17.08;;;6.60;;
75774;SDS011;64505;51.458;7.556;2022-10-31T05:06:16;14.70;;;7.05;;
75774;SDS011;64505;51.458;7.556;2022-10-31T05:08:19;15.10;;;7.22;;
75774;SDS011;64505;51.458;7.556;2022-10-31T05:10:22;14.18;;;7.45;;
75774;SDS011;64505;51.458;7.556;2022-10-31T05:12:26;18.08;;;7.35;;
75774;SDS011;64505;51.458;7.556;2022-10-31T05:14:28;18.17;;;7.25;;
75774;SDS011;64505;51.458;7.556;2022-10-31T05:16:33;15.18;;;7.97;;
75774;SDS011;64505;51.458;7.556;2022-10-31T05:18:35;15.20;;;7.32;;
75774;SDS011;64505;51.458;7.556;2022-10-31T05:20:38;19.48;;;8.40;;
75774;SDS011;64505;51.458;7.556;2022-10-31T05:22:41;17.90;;;7.95;;
75774;SDS011;64505;51.458;7.556;2022-10-31T05:24:45;20.20;;;7.75;;
75774;SDS011;64505;51.458;7.556;2022-10-31T05:26:48;17.83;;;7.88;;
75774;SDS011;64505;51.458;7.556;2022-10-31T05:28:51;20.38;;;8.45;;
75774;SDS011;64505;51.458;7.556;2022-10-31T05:30:54;17.73;;;7.72;;
75774;SDS011;64505;51.458;7.556;2022-10-31T05:32:58;23.73;;;9.32;;
75774;SDS011;64505;51.458;7.556;2022-10-31T05:35:01;19.60;;;8.02;;
75774;SDS011;64505;51.458;7.556;2022-10-31T05:37:04;18.50;;;7.40;;
75774;SDS011;64505;51.458;7.556;2022-10-31T05:39:07;21.17;;;8.38;;
75774;SDS011;64505;51.458;7.556;2022-10-31T05:41:09;17.67;;;9.30;;
75774;SDS011;64505;51.458;7.556;2022-10-31T05:43:12;15.48;;;7.85;;
75774;SDS011;64505;51.458;7.556;2022-10-31T05:45:16;16.45;;;7.78;;
75774;SDS011;64505;51.458;7.556;2022-10-31T05:47:19;23.08;;;9.73;;
75774;SDS011;64505;51.458;7.556;2022-10-31T05:49:23;22.50;;;9.93;;
75774;SDS011;64505;51.458;7.556;2022-10-31T05:51:25;21.80;;;9.80;;
75774;SDS011;64505;51.458;7.556;2022-10-31T05:53:28;18.98;;;9.25;;
75774;SDS011;64505;51.458;7.556;2022-10-31T05:55:31;17.52;;;8.25;;
75774;SDS011;64505;51.458;7.556;2022-10-31T05:57:34;19.73;;;9.38;;
75774;SDS011;64505;51.458;7.556;2022-10-31T05:59:37;17.95;;;9.35;;
75774;SDS011;64505;51.458;7.556;2022-10-31T06:01:39;21.30;;;9.93;;
75774;SDS011;64505;51.458;7.556;2022-10-31T06:03:42;24.35;;;10.00;;
75774;SDS011;64505;51.458;7.556;2022-10-31T06:05:46;21.80;;;8.52;;
75774;SDS011;64505;51.458;7.556;2022-10-31T06:07:55;17.85;;;8.75;;
75774;SDS011;64505;51.458;7.556;2022-10-31T06:09:58;19.65;;;8.77;;
75774;SDS011;64505;51.458;7.556;2022-10-31T06:12:01;24.08;;;10.18;;
75774;SDS011;64505;51.458;7.556;2022-10-31T06:14:04;19.70;;;9.57;;
75774;SDS011;64505;51.458;7.556;2022-10-31T06:16:06;23.25;;;11.40;;
75774;SDS011;64505;51.458;7.556;2022-10-31T06:18:09;19.95;;;10.45;;
75774;SDS011;64505;51.458;7.556;2022-10-31T06:20:12;23.33;;;10.23;;
75774;SDS011;64505;51.458;7.556;2022-10-31T06:22:16;22.60;;;11.95;;
75774;SDS011;64505;51.458;7.556;2022-10-31T06:24:19;25.25;;;11.48;;
75774;SDS011;64505;51.458;7.556;2022-10-31T06:26:22;23.88;;;11.48;;
75774;SDS011;64505;51.458;7.556;2022-10-31T06:28:25;26.02;;;11.77;;
75774;SDS011;64505;51.458;7.556;2022-10-31T06:30:28;20.45;;;10.13;;
75774;SDS011;64505;51.458;7.556;2022-10-31T06:32:32;24.45;;;11.13;;
75774;SDS011;64505;51.458;7.556;2022-10-31T06:34:35;23.40;;;10.30;;
75774;SDS011;64505;51.458;7.556;2022-10-31T06:36:38;26.88;;;12.50;;
75774;SDS011;64505;51.458;7.556;2022-10-31T06:38:44;22.85;;;11.30;;
75774;SDS011;64505;51.458;7.556;2022-10-31T06:40:51;24.33;;;12.65;;
75774;SDS011;64505;51.458;7.556;2022-10-31T06:42:57;20.40;;;10.57;;
75774;SDS011;64505;51.458;7.556;2022-10-31T06:45:01;26.02;;;12.13;;
75774;SDS011;64505;51.458;7.556;2022-10-31T06:47:05;20.52;;;10.55;;
75774;SDS011;64505;51.458;7.556;2022-10-31T06:49:09;18.60;;;9.85;;
75774;SDS011;64505;51.458;7.556;2022-10-31T06:51:12;22.20;;;9.80;;
75774;SDS011;64505;51.458;7.556;2022-10-31T06:53:15;24.38;;;10.15;;
75774;SDS011;64505;51.458;7.556;2022-10-31T06:55:20;22.20;;;10.23;;
75774;SDS011;64505;51.458;7.556;2022-10-31T06:57:24;20.65;;;10.40;;
75774;SDS011;64505;51.458;7.556;2022-10-31T06:59:28;21.60;;;10.07;;
75774;SDS011;64505;51.458;7.556;2022-10-31T07:01:31;22.30;;;10.35;;
75774;SDS011;64505;51.458;7.556;2022-10-31T07:03:35;23.83;;;10.05;;
75774;SDS011;64505;51.458;7.556;2022-10-31T07:05:38;25.95;;;10.85;;
75774;SDS011;64505;51.458;7.556;2022-10-31T07:07:41;21.60;;;10.80;;
75774;SDS011;64505;51.458;7.556;2022-10-31T07:09:46;19.17;;;9.75;;
75774;SDS011;64505;51.458;7.556;2022-10-31T07:11:53;20.52;;;10.57;;
75774;SDS011;64505;51.458;7.556;2022-10-31T07:13:56;24.35;;;11.00;;
75774;SDS011;64505;51.458;7.556;2022-10-31T07:16:00;27.02;;;11.75;;
75774;SDS011;64505;51.458;7.556;2022-10-31T07:18:05;23.25;;;11.70;;
75774;SDS011;64505;51.458;7.556;2022-10-31T07:20:10;25.25;;;11.10;;
75774;SDS011;64505;51.458;7.556;2022-10-31T07:22:13;26.08;;;11.85;;
75774;SDS011;64505;51.458;7.556;2022-10-31T07:24:16;25.27;;;12.00;;
75774;SDS011;64505;51.458;7.556;2022-10-31T07:26:20;22.85;;;11.00;;
75774;SDS011;64505;51.458;7.556;2022-10-31T07:28:24;24.55;;;10.90;;
75774;SDS011;64505;51.458;7.556;2022-10-31T07:30:28;25.50;;;12.57;;
75774;SDS011;64505;51.458;7.556;2022-10-31T07:32:37;23.35;;;11.30;;
75774;SDS011;64505;51.458;7.556;2022-10-31T07:34:41;21.65;;;10.68;;
75774;SDS011;64505;51.458;7.556;2022-10-31T07:36:47;23.98;;;11.10;;
75774;SDS011;64505;51.458;7.556;2022-10-31T07:38:53;22.90;;;11.27;;
75774;SDS011;64505;51.458;7.556;2022-10-31T07:40:56;20.50;;;10.73;;
75774;SDS011;64505;51.458;7.556;2022-10-31T07:42:59;21.20;;;10.25;;
75774;SDS011;64505;51.458;7.556;2022-10-31T07:45:13;22.67;;;11.32;;
75774;SDS011;64505;51.458;7.556;2022-10-31T07:47:17;22.65;;;10.93;;
75774;SDS011;64505;51.458;7.556;2022-10-31T07:49:20;20.98;;;11.38;;
75774;SDS011;64505;51.458;7.556;2022-10-31T07:51:22;27.10;;;11.40;;
75774;SDS011;64505;51.458;7.556;2022-10-31T07:53:25;22.23;;;11.32;;
75774;SDS011;64505;51.458;7.556;2022-10-31T07:55:28;28.40;;;12.52;;
75774;SDS011;64505;51.458;7.556;2022-10-31T07:57:31;19.90;;;10.40;;
75774;SDS011;64505;51.458;7.556;2022-10-31T07:59:35;27.40;;;11.65;;
75774;SDS011;64505;51.458;7.556;2022-10-31T08:01:39;26.15;;;11.70;;
75774;SDS011;64505;51.458;7.556;2022-10-31T08:03:41;22.13;;;11.27;;
75774;SDS011;64505;51.458;7.556;2022-10-31T08:05:44;28.50;;;12.10;;
75774;SDS011;64505;51.458;7.556;2022-10-31T08:07:47;23.13;;;10.75;;
75774;SDS011;64505;51.458;7.556;2022-10-31T08:09:50;24.10;;;10.93;;
75774;SDS011;64505;51.458;7.556;2022-10-31T08:11:52;20.52;;;10.73;;
75774;SDS011;64505;51.458;7.556;2022-10-31T08:13:55;21.50;;;10.50;;
75774;SDS011;64505;51.458;7.556;2022-10-31T08:15:58;21.88;;;9.85;;
75774;SDS011;64505;51.458;7.556;2022-10-31T08:18:06;19.98;;;10.75;;
75774;SDS011;64505;51.458;7.556;2022-10-31T08:20:13;22.95;;;10.65;;
75774;SDS011;64505;51.458;7.556;2022-10-31T08:22:16;24.38;;;9.90;;
75774;SDS011;64505;51.458;7.556;2022-10-31T08:24:19;22.35;;;10.65;;
75774;SDS011;64505;51.458;7.556;2022-10-31T08:26:21;23.63;;;10.57;;
75774;SDS011;64505;51.458;7.556;2022-10-31T08:28:24;23.30;;;10.57;;
75774;SDS011;64505;51.458;7.556;2022-10-31T08:30:27;21.98;;;9.45;;
75774;SDS011;64505;51.458;7.556;2022-10-31T08:32:31;28.60;;;11.02;;
75774;SDS011;64505;51.458;7.556;2022-10-31T08:34:35;22.23;;;9.02;;
75774;SDS011;64505;51.458;7.556;2022-10-31T08:36:38;25.70;;;10.77;;
75774;SDS011;64505;51.458;7.556;2022-10-31T08:38:40;21.73;;;10.23;;
75774;SDS011;64505;51.458;7.556;2022-10-31T08:40:43;22.05;;;10.20;;
75774;SDS011;64505;51.458;7.556;2022-10-31T08:42:59;24.08;;;11.35;;
75774;SDS011;64505;51.458;7.556;2022-10-31T08:47:06;22.00;;;9.75;;
75774;SDS011;64505;51.458;7.556;2022-10-31T08:49:09;23.08;;;9.93;;
75774;SDS011;64505;51.458;7.556;2022-10-31T08:51:13;23.90;;;10.65;;
75774;SDS011;64505;51.458;7.556;2022-10-31T08:53:16;27.05;;;10.75;;
75774;SDS011;64505;51.458;7.556;2022-10-31T08:55:19;24.00;;;10.70;;
75774;SDS011;64505;51.458;7.556;2022-10-31T08:57:22;27.00;;;10.52;;
75774;SDS011;64505;51.458;7.556;2022-10-31T08:59:25;21.98;;;9.65;;
75774;SDS011;64505;51.458;7.556;2022-10-31T09:01:27;24.52;;;10.65;;
75774;SDS011;64505;51.458;7.556;2022-10-31T09:03:30;20.75;;;9.55;;
75774;SDS011;64505;51.458;7.556;2022-10-31T09:05:34;26.40;;;11.02;;
75774;SDS011;64505;51.458;7.556;2022-10-31T09:07:38;30.88;;;11.98;;
75774;SDS011;64505;51.458;7.556;2022-10-31T09:09:41;25.50;;;11.07;;
75774;SDS011;64505;51.458;7.556;2022-10-31T09:11:43;29.67;;;11.73;;
75774;SDS011;64505;51.458;7.556;2022-10-31T09:13:46;29.23;;;12.48;;
75774;SDS011;64505;51.458;7.556;2022-10-31T09:15:49;29.80;;;12.32;;
75774;SDS011;64505;51.458;7.556;2022-10-31T09:17:52;23.27;;;12.40;;
75774;SDS011;64505;51.458;7.556;2022-10-31T09:19:55;31.02;;;12.25;;
75774;SDS011;64505;51.458;7.556;2022-10-31T09:21:58;29.00;;;12.20;;
75774;SDS011;64505;51.458;7.556;2022-10-31T09:24:02;28.67;;;11.77;;
75774;SDS011;64505;51.458;7.556;2022-10-31T09:26:05;30.27;;;12.38;;
75774;SDS011;64505;51.458;7.556;2022-10-31T09:28:08;30.77;;;11.70;;
75774;SDS011;64505;51.458;7.556;2022-10-31T09:30:13;29.55;;;11.68;;
75774;SDS011;64505;51.458;7.556;2022-10-31T09:32:16;25.70;;;12.07;;
75774;SDS011;64505;51.458;7.556;2022-10-31T09:34:18;28.17;;;12.60;;
75774;SDS011;64505;51.458;7.556;2022-10-31T09:36:21;30.17;;;11.93;;
75774;SDS011;64505;51.458;7.556;2022-10-31T09:38:24;24.90;;;11.27;;
75774;SDS011;64505;51.458;7.556;2022-10-31T09:40:29;27.63;;;12.07;;
75774;SDS011;64505;51.458;7.556;2022-10-31T09:42:45;31.95;;;13.32;;
75774;SDS011;64505;51.458;7.556;2022-10-31T09:44:58;29.30;;;12.43;;
75774;SDS011;64505;51.458;7.556;2022-10-31T09:47:09;29.95;;;13.40;;
75774;SDS011;64505;51.458;7.556;2022-10-31T09:49:24;29.88;;;12.30;;
75774;SDS011;64505;51.458;7.556;2022-10-31T09:51:37;30.98;;;12.45;;
75774;SDS011;64505;51.458;7.556;2022-10-31T09:53:43;30.55;;;13.50;;
75774;SDS011;64505;51.458;7.556;2022-10-31T09:55:51;34.78;;;13.68;;
75774;SDS011;64505;51.458;7.556;2022-10-31T09:57:55;33.22;;;14.43;;
75774;SDS011;64505;51.458;7.556;2022-10-31T09:59:57;30.23;;;13.10;;
75774;SDS011;64505;51.458;7.556;2022-10-31T10:02:02;32.60;;;14.48;;
75774;SDS011;64505;51.458;7.556;2022-10-31T10:04:16;32.92;;;13.32;;
75774;SDS011;64505;51.458;7.556;2022-10-31T10:06:32;31.98;;;14.50;;
75774;SDS011;64505;51.458;7.556;2022-10-31T10:08:38;33.53;;;14.15;;
75774;SDS011;64505;51.458;7.556;2022-10-31T10:10:44;32.90;;;14.30;;
75774;SDS011;64505;51.458;7.556;2022-10-31T10:13:03;31.80;;;13.70;;
75774;SDS011;64505;51.458;7.556;2022-10-31T10:15:30;32.20;;;13.88;;
75774;SDS011;64505;51.458;7.556;2022-10-31T10:17:40;30.70;;;13.85;;
75774;SDS011;64505;51.458;7.556;2022-10-31T10:19:53;34.35;;;13.27;;
75774;SDS011;64505;51.458;7.556;2022-10-31T10:24:11;30.77;;;12.20;;
75774;SDS011;64505;51.458;7.556;2022-10-31T10:26:25;34.42;;;12.85;;
75774;SDS011;64505;51.458;7.556;2022-10-31T10:28:38;29.15;;;12.43;;
75774;SDS011;64505;51.458;7.556;2022-10-31T10:30:44;30.67;;;12.70;;
75774;SDS011;64505;51.458;7.556;2022-10-31T10:32:52;34.78;;;12.43;;
75774;SDS011;64505;51.458;7.556;2022-10-31T10:34:59;27.20;;;12.43;;
75774;SDS011;64505;51.458;7.556;2022-10-31T10:37:24;33.03;;;13.30;;
75774;SDS011;64505;51.458;7.556;2022-10-31T10:39:32;28.90;;;13.25;;
75774;SDS011;64505;51.458;7.556;2022-10-31T10:41:40;31.15;;;14.18;;
75774;SDS011;64505;51.458;7.556;2022-10-31T10:43:49;28.05;;;12.45;;
75774;SDS011;64505;51.458;7.556;2022-10-31T10:46:00;35.63;;;12.93;;
75774;SDS011;64505;51.458;7.556;2022-10-31T10:48:36;30.13;;;13.75;;
75774;SDS011;64505;51.458;7.556;2022-10-31T10:50:46;28.35;;;13.75;;
75774;SDS011;64505;51.458;7.556;2022-10-31T10:52:52;32.25;;;14.00;;
75774;SDS011;64505;51.458;7.556;2022-10-31T10:55:03;29.75;;;12.57;;
75774;SDS011;64505;51.458;7.556;2022-10-31T10:59:43;30.38;;;12.80;;
75774;SDS011;64505;51.458;7.556;2022-10-31T11:01:45;32.58;;;13.68;;
75774;SDS011;64505;51.458;7.556;2022-10-31T11:03:50;30.80;;;13.75;;
75774;SDS011;64505;51.458;7.556;2022-10-31T11:05:54;31.27;;;14.10;;
75774;SDS011;64505;51.458;7.556;2022-10-31T11:07:58;32.42;;;13.15;;
75774;SDS011;64505;51.458;7.556;2022-10-31T11:10:04;29.73;;;13.35;;
75774;SDS011;64505;51.458;7.556;2022-10-31T11:12:16;28.48;;;13.70;;
75774;SDS011;64505;51.458;7.556;2022-10-31T11:14:23;27.27;;;12.73;;
75774;SDS011;64505;51.458;7.556;2022-10-31T11:16:29;27.80;;;11.13;;
75774;SDS011;64505;51.458;7.556;2022-10-31T11:18:42;21.58;;;10.20;;
75774;SDS011;64505;51.458;7.556;2022-10-31T11:20:50;23.88;;;9.50;;
75774;SDS011;64505;51.458;7.556;2022-10-31T11:23:00;22.92;;;10.60;;
75774;SDS011;64505;51.458;7.556;2022-10-31T11:25:14;24.00;;;10.48;;
75774;SDS011;64505;51.458;7.556;2022-10-31T11:27:24;20.20;;;9.70;;
75774;SDS011;64505;51.458;7.556;2022-10-31T11:29:27;23.08;;;10.43;;
75774;SDS011;64505;51.458;7.556;2022-10-31T11:31:32;23.98;;;10.35;;
75774;SDS011;64505;51.458;7.556;2022-10-31T11:33:38;21.83;;;10.07;;
75774;SDS011;64505;51.458;7.556;2022-10-31T11:35:47;21.60;;;9.70;;
75774;SDS011;64505;51.458;7.556;2022-10-31T11:37:57;22.27;;;9.85;;
75774;SDS011;64505;51.458;7.556;2022-10-31T11:40:05;24.20;;;10.57;;
75774;SDS011;64505;51.458;7.556;2022-10-31T11:42:09;20.83;;;10.25;;
75774;SDS011;64505;51.458;7.556;2022-10-31T11:44:12;18.40;;;8.98;;
75774;SDS011;64505;51.458;7.556;2022-10-31T11:46:18;20.85;;;9.13;;
75774;SDS011;64505;51.458;7.556;2022-10-31T11:48:25;19.60;;;8.98;;
75774;SDS011;64505;51.458;7.556;2022-10-31T11:50:29;22.33;;;9.40;;
75774;SDS011;64505;51.458;7.556;2022-10-31T11:52:36;22.92;;;9.27;;
75774;SDS011;64505;51.458;7.556;2022-10-31T11:54:44;21.75;;;8.98;;
75774;SDS011;64505;51.458;7.556;2022-10-31T11:56:49;16.83;;;7.30;;
75774;SDS011;64505;51.458;7.556;2022-10-31T11:58:56;18.25;;;7.47;;
75774;SDS011;64505;51.458;7.556;2022-10-31T12:00:59;19.70;;;9.00;;
75774;SDS011;64505;51.458;7.556;2022-10-31T12:03:10;19.67;;;8.77;;
75774;SDS011;64505;51.458;7.556;2022-10-31T12:05:21;19.05;;;8.02;;
75774;SDS011;64505;51.458;7.556;2022-10-31T12:07:28;19.25;;;9.23;;
75774;SDS011;64505;51.458;7.556;2022-10-31T12:09:32;17.17;;;8.50;;
75774;SDS011;64505;51.458;7.556;2022-10-31T12:11:41;22.55;;;8.93;;
75774;SDS011;64505;51.458;7.556;2022-10-31T12:13:51;19.08;;;8.48;;
75774;SDS011;64505;51.458;7.556;2022-10-31T12:16:09;18.73;;;8.07;;
75774;SDS011;64505;51.458;7.556;2022-10-31T12:18:28;21.05;;;9.18;;
75774;SDS011;64505;51.458;7.556;2022-10-31T12:20:47;22.52;;;8.88;;
75774;SDS011;64505;51.458;7.556;2022-10-31T12:22:58;18.27;;;9.25;;
75774;SDS011;64505;51.458;7.556;2022-10-31T12:25:10;19.20;;;8.35;;
75774;SDS011;64505;51.458;7.556;2022-10-31T12:27:27;15.65;;;8.05;;